sensor_id;sensor_type;location;lat;lon;timestamp;temperature;humidity
14531;DHT22;7352;50.866;4.366;2022-10-13T00:00:49;15.50;99.90
14531;DHT22;7352;50.866;4.366;2022-10-13T00:03:16;15.60;99.90
14531;DHT22;7352;50.866;4.366;2022-10-13T00:05:45;15.70;99.90
14531;DHT22;7352;50.866;4.366;2022-10-13T00:08:15;15.70;99.90
14531;DHT22;7352;50.866;4.366;2022-10-13T00:10:43;15.60;99.90
14531;DHT22;7352;50.866;4.366;2022-10-13T00:13:11;15.60;99.90
14531;DHT22;7352;50.866;4.366;2022-10-13T00:15:39;15.60;99.90
14531;DHT22;7352;50.866;4.366;2022-10-13T00:18:06;15.60;99.90
14531;DHT22;7352;50.866;4.366;2022-10-13T00:20:34;15.70;99.90
14531;DHT22;7352;50.866;4.366;2022-10-13T00:23:01;15.60;99.90
14531;DHT22;7352;50.866;4.366;2022-10-13T00:25:29;15.70;99.90
14531;DHT22;7352;50.866;4.366;2022-10-13T00:27:56;15.70;99.90
14531;DHT22;7352;50.866;4.366;2022-10-13T00:30:23;15.70;99.90
14531;DHT22;7352;50.866;4.366;2022-10-13T00:32:50;15.80;99.90
14531;DHT22;7352;50.866;4.366;2022-10-13T00:35:17;15.80;99.90
14531;DHT22;7352;50.866;4.366;2022-10-13T00:37:49;15.70;99.90
14531;DHT22;7352;50.866;4.366;2022-10-13T00:40:18;15.80;99.90
14531;DHT22;7352;50.866;4.366;2022-10-13T00:42:49;15.80;99.90
14531;DHT22;7352;50.866;4.366;2022-10-13T00:45:22;15.80;99.90
14531;DHT22;7352;50.866;4.366;2022-10-13T00:47:52;15.80;99.90
14531;DHT22;7352;50.866;4.366;2022-10-13T00:50:22;15.70;99.90
14531;DHT22;7352;50.866;4.366;2022-10-13T00:52:52;15.70;99.90
14531;DHT22;7352;50.866;4.366;2022-10-13T00:55:23;15.70;99.90
14531;DHT22;7352;50.866;4.366;2022-10-13T00:57:55;15.70;99.90
14531;DHT22;7352;50.866;4.366;2022-10-13T01:00:25;15.70;99.90
14531;DHT22;7352;50.866;4.366;2022-10-13T01:02:52;15.70;99.90
14531;DHT22;7352;50.866;4.366;2022-10-13T01:05:20;15.70;99.90
14531;DHT22;7352;50.866;4.366;2022-10-13T01:07:49;15.60;99.90
14531;DHT22;7352;50.866;4.366;2022-10-13T01:10:17;15.60;99.90
14531;DHT22;7352;50.866;4.366;2022-10-13T01:13:00;15.60;99.90
14531;DHT22;7352;50.866;4.366;2022-10-13T01:15:33;15.70;99.90
14531;DHT22;7352;50.866;4.366;2022-10-13T01:18:10;15.70;99.90
14531;DHT22;7352;50.866;4.366;2022-10-13T01:21:01;15.70;99.90
14531;DHT22;7352;50.866;4.366;2022-10-13T01:23:59;15.60;99.90
14531;DHT22;7352;50.866;4.366;2022-10-13T01:29:47;15.60;99.90
14531;DHT22;7352;50.866;4.366;2022-10-13T01:32:21;15.60;99.90
14531;DHT22;7352;50.866;4.366;2022-10-13T01:34:54;15.50;99.90
14531;DHT22;7352;50.866;4.366;2022-10-13T01:37:28;15.40;99.90
14531;DHT22;7352;50.866;4.366;2022-10-13T01:40:01;15.30;99.90
14531;DHT22;7352;50.866;4.366;2022-10-13T01:42:35;15.20;99.90
14531;DHT22;7352;50.866;4.366;2022-10-13T01:45:07;15.30;99.90
14531;DHT22;7352;50.866;4.366;2022-10-13T01:47:37;15.20;99.90
14531;DHT22;7352;50.866;4.366;2022-10-13T01:50:07;15.30;99.90
14531;DHT22;7352;50.866;4.366;2022-10-13T01:52:37;15.20;99.90
14531;DHT22;7352;50.866;4.366;2022-10-13T01:55:07;15.30;99.90
14531;DHT22;7352;50.866;4.366;2022-10-13T01:57:36;15.30;99.90
14531;DHT22;7352;50.866;4.366;2022-10-13T02:00:08;15.30;99.90
14531;DHT22;7352;50.866;4.366;2022-10-13T02:02:41;15.30;99.90
14531;DHT22;7352;50.866;4.366;2022-10-13T02:05:15;15.20;99.90
14531;DHT22;7352;50.866;4.366;2022-10-13T02:07:45;15.30;99.90
14531;DHT22;7352;50.866;4.366;2022-10-13T02:10:19;15.30;99.90
14531;DHT22;7352;50.866;4.366;2022-10-13T02:12:51;15.40;99.90
14531;DHT22;7352;50.866;4.366;2022-10-13T02:15:23;15.30;99.90
14531;DHT22;7352;50.866;4.366;2022-10-13T02:17:51;15.40;99.90
14531;DHT22;7352;50.866;4.366;2022-10-13T02:20:20;15.40;99.90
14531;DHT22;7352;50.866;4.366;2022-10-13T02:22:51;15.30;99.90
14531;DHT22;7352;50.866;4.366;2022-10-13T02:25:20;15.10;99.90
14531;DHT22;7352;50.866;4.366;2022-10-13T02:27:48;15.10;99.90
14531;DHT22;7352;50.866;4.366;2022-10-13T02:30:26;15.00;99.90
14531;DHT22;7352;50.866;4.366;2022-10-13T02:32:54;15.10;99.90
14531;DHT22;7352;50.866;4.366;2022-10-13T02:35:21;15.00;99.90
14531;DHT22;7352;50.866;4.366;2022-10-13T02:37:48;15.00;99.90
14531;DHT22;7352;50.866;4.366;2022-10-13T02:40:16;15.10;99.90
14531;DHT22;7352;50.866;4.366;2022-10-13T02:42:43;15.00;99.90
14531;DHT22;7352;50.866;4.366;2022-10-13T02:45:11;15.10;99.90
14531;DHT22;7352;50.866;4.366;2022-10-13T02:47:40;15.10;99.90
14531;DHT22;7352;50.866;4.366;2022-10-13T02:50:07;15.10;99.90
14531;DHT22;7352;50.866;4.366;2022-10-13T02:52:34;15.10;99.90
14531;DHT22;7352;50.866;4.366;2022-10-13T02:55:02;14.90;99.90
14531;DHT22;7352;50.866;4.366;2022-10-13T02:57:29;15.10;99.90
14531;DHT22;7352;50.866;4.366;2022-10-13T02:59:56;15.10;99.90
14531;DHT22;7352;50.866;4.366;2022-10-13T03:02:23;15.10;99.90
14531;DHT22;7352;50.866;4.366;2022-10-13T03:04:53;15.10;99.90
14531;DHT22;7352;50.866;4.366;2022-10-13T03:07:20;15.20;99.90
14531;DHT22;7352;50.866;4.366;2022-10-13T03:09:47;15.20;99.90
14531;DHT22;7352;50.866;4.366;2022-10-13T03:12:16;15.20;99.90
14531;DHT22;7352;50.866;4.366;2022-10-13T03:14:43;15.20;99.90
14531;DHT22;7352;50.866;4.366;2022-10-13T03:17:10;15.10;99.90
14531;DHT22;7352;50.866;4.366;2022-10-13T03:19:39;15.20;99.90
14531;DHT22;7352;50.866;4.366;2022-10-13T03:22:07;15.10;99.90
14531;DHT22;7352;50.866;4.366;2022-10-13T03:24:34;15.00;99.90
14531;DHT22;7352;50.866;4.366;2022-10-13T03:27:01;15.00;99.90
14531;DHT22;7352;50.866;4.366;2022-10-13T03:29:28;15.10;99.90
14531;DHT22;7352;50.866;4.366;2022-10-13T03:31:55;15.10;99.90
14531;DHT22;7352;50.866;4.366;2022-10-13T03:34:22;15.00;99.90
14531;DHT22;7352;50.866;4.366;2022-10-13T03:36:49;15.10;99.90
14531;DHT22;7352;50.866;4.366;2022-10-13T03:39:17;15.00;99.90
14531;DHT22;7352;50.866;4.366;2022-10-13T03:41:44;15.00;99.90
14531;DHT22;7352;50.866;4.366;2022-10-13T03:44:12;15.00;99.90
14531;DHT22;7352;50.866;4.366;2022-10-13T03:46:39;15.10;99.90
14531;DHT22;7352;50.866;4.366;2022-10-13T03:49:06;15.00;99.90
14531;DHT22;7352;50.866;4.366;2022-10-13T03:51:33;15.10;99.90
14531;DHT22;7352;50.866;4.366;2022-10-13T03:54:00;15.00;99.90
14531;DHT22;7352;50.866;4.366;2022-10-13T03:56:28;15.00;99.90
14531;DHT22;7352;50.866;4.366;2022-10-13T03:58:57;15.10;99.90
14531;DHT22;7352;50.866;4.366;2022-10-13T04:01:27;15.10;99.90
14531;DHT22;7352;50.866;4.366;2022-10-13T04:03:55;15.10;99.90
14531;DHT22;7352;50.866;4.366;2022-10-13T04:06:24;15.00;99.90
14531;DHT22;7352;50.866;4.366;2022-10-13T04:08:52;15.00;99.90
14531;DHT22;7352;50.866;4.366;2022-10-13T04:11:19;15.10;99.90
14531;DHT22;7352;50.866;4.366;2022-10-13T04:13:48;15.10;99.90
14531;DHT22;7352;50.866;4.366;2022-10-13T04:16:16;15.20;99.90
14531;DHT22;7352;50.866;4.366;2022-10-13T04:18:49;15.10;99.90
14531;DHT22;7352;50.866;4.366;2022-10-13T04:21:17;15.00;99.90
14531;DHT22;7352;50.866;4.366;2022-10-13T04:23:44;15.10;99.90
14531;DHT22;7352;50.866;4.366;2022-10-13T04:26:14;15.10;99.90
14531;DHT22;7352;50.866;4.366;2022-10-13T04:28:42;15.20;99.90
14531;DHT22;7352;50.866;4.366;2022-10-13T04:31:10;15.20;99.90
14531;DHT22;7352;50.866;4.366;2022-10-13T04:33:38;15.30;99.90
14531;DHT22;7352;50.866;4.366;2022-10-13T04:36:06;15.30;99.90
14531;DHT22;7352;50.866;4.366;2022-10-13T04:38:33;15.20;99.90
14531;DHT22;7352;50.866;4.366;2022-10-13T04:41:02;15.10;99.90
14531;DHT22;7352;50.866;4.366;2022-10-13T04:43:32;15.20;99.90
14531;DHT22;7352;50.866;4.366;2022-10-13T04:46:02;15.10;99.90
14531;DHT22;7352;50.866;4.366;2022-10-13T04:48:31;15.30;99.90
14531;DHT22;7352;50.866;4.366;2022-10-13T04:51:05;15.30;99.90
14531;DHT22;7352;50.866;4.366;2022-10-13T04:53:33;15.30;99.90
14531;DHT22;7352;50.866;4.366;2022-10-13T04:56:00;15.20;99.90
14531;DHT22;7352;50.866;4.366;2022-10-13T04:58:28;15.30;99.90
14531;DHT22;7352;50.866;4.366;2022-10-13T05:00:56;15.20;99.90
14531;DHT22;7352;50.866;4.366;2022-10-13T05:03:23;15.20;99.90
14531;DHT22;7352;50.866;4.366;2022-10-13T05:05:52;15.20;99.90
14531;DHT22;7352;50.866;4.366;2022-10-13T05:08:19;15.10;99.90
14531;DHT22;7352;50.866;4.366;2022-10-13T05:10:54;15.10;99.90
14531;DHT22;7352;50.866;4.366;2022-10-13T05:13:22;15.20;99.90
14531;DHT22;7352;50.866;4.366;2022-10-13T05:15:49;15.20;99.90
14531;DHT22;7352;50.866;4.366;2022-10-13T05:18:16;15.20;99.90
14531;DHT22;7352;50.866;4.366;2022-10-13T05:20:43;15.10;99.90
14531;DHT22;7352;50.866;4.366;2022-10-13T05:23:13;15.10;99.90
14531;DHT22;7352;50.866;4.366;2022-10-13T05:25:41;15.20;99.90
14531;DHT22;7352;50.866;4.366;2022-10-13T05:28:08;15.20;99.90
14531;DHT22;7352;50.866;4.366;2022-10-13T05:30:35;15.20;99.90
14531;DHT22;7352;50.866;4.366;2022-10-13T05:33:02;15.20;99.90
14531;DHT22;7352;50.866;4.366;2022-10-13T05:35:29;15.30;99.90
14531;DHT22;7352;50.866;4.366;2022-10-13T05:37:57;15.20;99.90
14531;DHT22;7352;50.866;4.366;2022-10-13T05:40:25;15.20;99.90
14531;DHT22;7352;50.866;4.366;2022-10-13T05:42:52;15.20;99.90
14531;DHT22;7352;50.866;4.366;2022-10-13T05:45:21;15.40;99.90
14531;DHT22;7352;50.866;4.366;2022-10-13T05:47:48;15.20;99.90
14531;DHT22;7352;50.866;4.366;2022-10-13T05:50:16;15.10;99.90
14531;DHT22;7352;50.866;4.366;2022-10-13T05:52:44;15.20;99.90
14531;DHT22;7352;50.866;4.366;2022-10-13T05:55:14;15.10;99.90
14531;DHT22;7352;50.866;4.366;2022-10-13T05:57:46;15.20;99.90
14531;DHT22;7352;50.866;4.366;2022-10-13T06:00:17;15.20;99.90
14531;DHT22;7352;50.866;4.366;2022-10-13T06:02:47;15.20;99.90
14531;DHT22;7352;50.866;4.366;2022-10-13T06:05:19;15.30;99.90
14531;DHT22;7352;50.866;4.366;2022-10-13T06:07:47;15.30;99.90
14531;DHT22;7352;50.866;4.366;2022-10-13T06:10:14;15.30;99.90
14531;DHT22;7352;50.866;4.366;2022-10-13T06:12:41;15.40;99.90
14531;DHT22;7352;50.866;4.366;2022-10-13T06:15:10;15.40;99.90
14531;DHT22;7352;50.866;4.366;2022-10-13T06:17:37;15.30;99.90
14531;DHT22;7352;50.866;4.366;2022-10-13T06:20:05;15.40;99.90
14531;DHT22;7352;50.866;4.366;2022-10-13T06:22:33;15.30;99.90
14531;DHT22;7352;50.866;4.366;2022-10-13T06:25:01;15.30;99.90
14531;DHT22;7352;50.866;4.366;2022-10-13T06:27:28;15.30;99.90
14531;DHT22;7352;50.866;4.366;2022-10-13T06:29:56;15.30;99.90
14531;DHT22;7352;50.866;4.366;2022-10-13T06:32:25;15.30;99.90
14531;DHT22;7352;50.866;4.366;2022-10-13T06:34:52;15.30;99.90
14531;DHT22;7352;50.866;4.366;2022-10-13T06:45:45;15.50;99.90
14531;DHT22;7352;50.866;4.366;2022-10-13T06:48:14;15.40;99.90
14531;DHT22;7352;50.866;4.366;2022-10-13T06:50:41;15.50;99.90
14531;DHT22;7352;50.866;4.366;2022-10-13T06:53:07;15.50;99.90
14531;DHT22;7352;50.866;4.366;2022-10-13T06:55:34;15.40;99.90
14531;DHT22;7352;50.866;4.366;2022-10-13T06:58:02;15.40;99.90
14531;DHT22;7352;50.866;4.366;2022-10-13T07:00:29;15.40;99.90
14531;DHT22;7352;50.866;4.366;2022-10-13T07:02:56;15.50;99.90
14531;DHT22;7352;50.866;4.366;2022-10-13T07:05:25;15.50;99.90
14531;DHT22;7352;50.866;4.366;2022-10-13T07:07:52;15.50;99.90
14531;DHT22;7352;50.866;4.366;2022-10-13T07:10:19;15.50;99.90
14531;DHT22;7352;50.866;4.366;2022-10-13T07:12:46;15.40;99.90
14531;DHT22;7352;50.866;4.366;2022-10-13T07:15:13;15.50;99.90
14531;DHT22;7352;50.866;4.366;2022-10-13T07:17:40;15.60;99.90
14531;DHT22;7352;50.866;4.366;2022-10-13T07:20:07;15.60;99.90
14531;DHT22;7352;50.866;4.366;2022-10-13T07:22:37;15.60;99.90
14531;DHT22;7352;50.866;4.366;2022-10-13T07:25:05;15.60;99.90
14531;DHT22;7352;50.866;4.366;2022-10-13T07:27:32;15.60;99.90
14531;DHT22;7352;50.866;4.366;2022-10-13T07:30:00;15.70;99.90
14531;DHT22;7352;50.866;4.366;2022-10-13T07:32:27;15.70;99.90
14531;DHT22;7352;50.866;4.366;2022-10-13T07:34:54;15.70;99.90
14531;DHT22;7352;50.866;4.366;2022-10-13T07:37:21;15.60;99.90
14531;DHT22;7352;50.866;4.366;2022-10-13T07:39:50;15.70;99.90
14531;DHT22;7352;50.866;4.366;2022-10-13T07:42:17;15.80;99.90
14531;DHT22;7352;50.866;4.366;2022-10-13T07:44:44;15.60;99.90
14531;DHT22;7352;50.866;4.366;2022-10-13T07:47:11;15.70;99.90
14531;DHT22;7352;50.866;4.366;2022-10-13T07:49:38;15.70;99.90
14531;DHT22;7352;50.866;4.366;2022-10-13T07:52:08;15.70;99.90
14531;DHT22;7352;50.866;4.366;2022-10-13T07:54:35;15.80;99.90
14531;DHT22;7352;50.866;4.366;2022-10-13T07:57:03;15.90;99.90
14531;DHT22;7352;50.866;4.366;2022-10-13T07:59:31;16.00;99.90
14531;DHT22;7352;50.866;4.366;2022-10-13T08:01:58;16.00;99.90
14531;DHT22;7352;50.866;4.366;2022-10-13T08:04:28;16.10;99.90
14531;DHT22;7352;50.866;4.366;2022-10-13T08:06:55;15.90;99.90
14531;DHT22;7352;50.866;4.366;2022-10-13T08:09:22;16.00;99.90
14531;DHT22;7352;50.866;4.366;2022-10-13T08:11:48;16.00;99.90
14531;DHT22;7352;50.866;4.366;2022-10-13T08:14:17;16.10;99.90
14531;DHT22;7352;50.866;4.366;2022-10-13T08:16:44;16.10;99.90
14531;DHT22;7352;50.866;4.366;2022-10-13T08:19:11;16.10;99.90
14531;DHT22;7352;50.866;4.366;2022-10-13T08:21:38;16.10;99.90
14531;DHT22;7352;50.866;4.366;2022-10-13T08:24:09;16.20;99.90
14531;DHT22;7352;50.866;4.366;2022-10-13T08:26:37;16.20;99.90
14531;DHT22;7352;50.866;4.366;2022-10-13T08:29:04;16.30;99.90
14531;DHT22;7352;50.866;4.366;2022-10-13T08:31:33;16.50;99.90
14531;DHT22;7352;50.866;4.366;2022-10-13T08:34:00;16.60;99.90
14531;DHT22;7352;50.866;4.366;2022-10-13T08:36:27;16.60;99.90
14531;DHT22;7352;50.866;4.366;2022-10-13T08:38:53;16.60;99.90
14531;DHT22;7352;50.866;4.366;2022-10-13T08:41:24;16.50;99.90
14531;DHT22;7352;50.866;4.366;2022-10-13T08:43:55;16.60;99.90
14531;DHT22;7352;50.866;4.366;2022-10-13T08:46:25;16.60;99.90
14531;DHT22;7352;50.866;4.366;2022-10-13T08:48:56;16.70;99.90
14531;DHT22;7352;50.866;4.366;2022-10-13T08:51:23;16.80;99.90
14531;DHT22;7352;50.866;4.366;2022-10-13T08:53:50;16.80;99.90
14531;DHT22;7352;50.866;4.366;2022-10-13T08:56:20;16.80;99.90
14531;DHT22;7352;50.866;4.366;2022-10-13T08:58:58;16.90;99.90
14531;DHT22;7352;50.866;4.366;2022-10-13T09:01:28;16.80;99.90
14531;DHT22;7352;50.866;4.366;2022-10-13T09:04:14;16.80;99.90
14531;DHT22;7352;50.866;4.366;2022-10-13T09:07:09;16.90;99.90
14531;DHT22;7352;50.866;4.366;2022-10-13T09:09:59;16.80;99.90
14531;DHT22;7352;50.866;4.366;2022-10-13T09:12:26;16.80;99.90
14531;DHT22;7352;50.866;4.366;2022-10-13T09:14:58;16.90;99.90
14531;DHT22;7352;50.866;4.366;2022-10-13T09:17:28;17.00;99.90
14531;DHT22;7352;50.866;4.366;2022-10-13T09:20:03;17.10;99.90
14531;DHT22;7352;50.866;4.366;2022-10-13T09:22:34;17.20;99.90
14531;DHT22;7352;50.866;4.366;2022-10-13T09:25:18;17.10;99.90
14531;DHT22;7352;50.866;4.366;2022-10-13T09:27:54;16.80;99.90
14531;DHT22;7352;50.866;4.366;2022-10-13T09:30:29;16.70;99.90
14531;DHT22;7352;50.866;4.366;2022-10-13T09:33:20;16.60;99.90
14531;DHT22;7352;50.866;4.366;2022-10-13T09:36:12;16.50;99.90
14531;DHT22;7352;50.866;4.366;2022-10-13T09:39:05;16.70;99.90
14531;DHT22;7352;50.866;4.366;2022-10-13T09:45:23;16.90;99.90
14531;DHT22;7352;50.866;4.366;2022-10-13T09:48:01;17.00;99.90
14531;DHT22;7352;50.866;4.366;2022-10-13T09:50:33;17.00;99.90
14531;DHT22;7352;50.866;4.366;2022-10-13T09:53:23;17.00;99.90
14531;DHT22;7352;50.866;4.366;2022-10-13T09:56:09;17.00;99.90
14531;DHT22;7352;50.866;4.366;2022-10-13T09:58:54;17.20;99.90
14531;DHT22;7352;50.866;4.366;2022-10-13T10:01:35;17.40;99.90
14531;DHT22;7352;50.866;4.366;2022-10-13T10:04:18;17.60;99.90
14531;DHT22;7352;50.866;4.366;2022-10-13T10:07:04;17.60;99.90
14531;DHT22;7352;50.866;4.366;2022-10-13T10:09:51;17.80;99.90
14531;DHT22;7352;50.866;4.366;2022-10-13T10:12:41;17.60;99.90
14531;DHT22;7352;50.866;4.366;2022-10-13T10:15:19;17.60;99.90
14531;DHT22;7352;50.866;4.366;2022-10-13T10:17:54;17.60;99.90
14531;DHT22;7352;50.866;4.366;2022-10-13T10:20:53;17.50;99.90
14531;DHT22;7352;50.866;4.366;2022-10-13T10:23:39;17.30;99.90
14531;DHT22;7352;50.866;4.366;2022-10-13T10:26:41;17.10;99.90
14531;DHT22;7352;50.866;4.366;2022-10-13T10:29:21;17.20;99.90
14531;DHT22;7352;50.866;4.366;2022-10-13T10:32:04;17.30;99.90
14531;DHT22;7352;50.866;4.366;2022-10-13T10:34:54;17.30;99.90
14531;DHT22;7352;50.866;4.366;2022-10-13T10:37:59;17.00;99.90
14531;DHT22;7352;50.866;4.366;2022-10-13T10:40:52;17.00;99.90
14531;DHT22;7352;50.866;4.366;2022-10-13T10:43:42;16.90;99.90
14531;DHT22;7352;50.866;4.366;2022-10-13T10:46:38;16.80;99.90
14531;DHT22;7352;50.866;4.366;2022-10-13T10:49:24;16.50;99.90
14531;DHT22;7352;50.866;4.366;2022-10-13T10:52:18;16.40;99.90
14531;DHT22;7352;50.866;4.366;2022-10-13T10:54:58;16.40;99.90
14531;DHT22;7352;50.866;4.366;2022-10-13T10:57:34;16.20;99.90
14531;DHT22;7352;50.866;4.366;2022-10-13T11:00:12;16.20;99.90
14531;DHT22;7352;50.866;4.366;2022-10-13T11:02:51;16.10;99.90
14531;DHT22;7352;50.866;4.366;2022-10-13T11:05:19;16.00;99.90
14531;DHT22;7352;50.866;4.366;2022-10-13T11:08:23;16.00;99.90
14531;DHT22;7352;50.866;4.366;2022-10-13T11:10:45;16.10;99.90
14531;DHT22;7352;50.866;4.366;2022-10-13T11:13:18;16.10;99.90
14531;DHT22;7352;50.866;4.366;2022-10-13T11:15:48;15.90;99.90
14531;DHT22;7352;50.866;4.366;2022-10-13T11:21:19;15.80;99.90
14531;DHT22;7352;50.866;4.366;2022-10-13T11:23:47;15.80;99.90
14531;DHT22;7352;50.866;4.366;2022-10-13T11:26:28;15.70;99.90
14531;DHT22;7352;50.866;4.366;2022-10-13T11:28:57;15.80;99.90
14531;DHT22;7352;50.866;4.366;2022-10-13T11:31:29;16.00;99.90
14531;DHT22;7352;50.866;4.366;2022-10-13T11:33:59;16.20;99.90
14531;DHT22;7352;50.866;4.366;2022-10-13T11:36:42;16.40;99.90
14531;DHT22;7352;50.866;4.366;2022-10-13T11:42:56;16.60;99.90
14531;DHT22;7352;50.866;4.366;2022-10-13T11:45:51;16.80;99.90
14531;DHT22;7352;50.866;4.366;2022-10-13T11:49:02;17.00;99.90
14531;DHT22;7352;50.866;4.366;2022-10-13T11:51:39;17.00;99.90
14531;DHT22;7352;50.866;4.366;2022-10-13T11:54:15;16.80;99.90
14531;DHT22;7352;50.866;4.366;2022-10-13T11:56:53;16.70;99.90
14531;DHT22;7352;50.866;4.366;2022-10-13T11:59:25;16.80;99.90
14531;DHT22;7352;50.866;4.366;2022-10-13T12:01:54;16.80;99.90
14531;DHT22;7352;50.866;4.366;2022-10-13T12:04:25;16.90;99.90
14531;DHT22;7352;50.866;4.366;2022-10-13T12:07:03;16.80;99.90
14531;DHT22;7352;50.866;4.366;2022-10-13T12:09:32;16.80;99.90
14531;DHT22;7352;50.866;4.366;2022-10-13T12:12:11;16.80;99.90
14531;DHT22;7352;50.866;4.366;2022-10-13T12:14:40;16.60;99.90
14531;DHT22;7352;50.866;4.366;2022-10-13T12:17:21;16.70;99.90
14531;DHT22;7352;50.866;4.366;2022-10-13T12:19:51;16.70;99.90
14531;DHT22;7352;50.866;4.366;2022-10-13T12:22:19;16.70;99.90
14531;DHT22;7352;50.866;4.366;2022-10-13T12:24:56;16.60;99.90
14531;DHT22;7352;50.866;4.366;2022-10-13T12:27:24;16.50;99.90
14531;DHT22;7352;50.866;4.366;2022-10-13T12:29:52;16.50;99.90
14531;DHT22;7352;50.866;4.366;2022-10-13T12:32:21;16.80;99.90
14531;DHT22;7352;50.866;4.366;2022-10-13T12:34:50;16.70;99.90
14531;DHT22;7352;50.866;4.366;2022-10-13T12:37:27;16.60;99.90
14531;DHT22;7352;50.866;4.366;2022-10-13T12:39:56;16.70;99.90
14531;DHT22;7352;50.866;4.366;2022-10-13T12:42:28;16.90;99.90
14531;DHT22;7352;50.866;4.366;2022-10-13T12:44:57;17.00;99.90
14531;DHT22;7352;50.866;4.366;2022-10-13T12:47:39;16.70;99.90
14531;DHT22;7352;50.866;4.366;2022-10-13T12:50:33;16.80;99.90
14531;DHT22;7352;50.866;4.366;2022-10-13T12:53:18;16.80;99.90
14531;DHT22;7352;50.866;4.366;2022-10-13T12:55:53;16.70;99.90
14531;DHT22;7352;50.866;4.366;2022-10-13T12:58:26;16.60;99.90
14531;DHT22;7352;50.866;4.366;2022-10-13T13:01:07;16.70;99.90
14531;DHT22;7352;50.866;4.366;2022-10-13T13:03:35;16.70;99.90
14531;DHT22;7352;50.866;4.366;2022-10-13T13:06:10;16.70;99.90
14531;DHT22;7352;50.866;4.366;2022-10-13T13:08:46;16.90;99.90
14531;DHT22;7352;50.866;4.366;2022-10-13T13:11:21;16.90;99.90
14531;DHT22;7352;50.866;4.366;2022-10-13T13:13:49;16.70;99.90
14531;DHT22;7352;50.866;4.366;2022-10-13T13:16:17;16.70;99.90
14531;DHT22;7352;50.866;4.366;2022-10-13T13:18:45;16.60;99.90
14531;DHT22;7352;50.866;4.366;2022-10-13T13:21:15;16.50;99.90
14531;DHT22;7352;50.866;4.366;2022-10-13T13:23:45;16.30;99.90
14531;DHT22;7352;50.866;4.366;2022-10-13T13:26:15;16.30;99.90
14531;DHT22;7352;50.866;4.366;2022-10-13T13:28:45;16.40;99.90
14531;DHT22;7352;50.866;4.366;2022-10-13T13:31:13;16.40;99.90
14531;DHT22;7352;50.866;4.366;2022-10-13T13:33:41;16.50;99.90
14531;DHT22;7352;50.866;4.366;2022-10-13T13:36:14;16.80;99.90
14531;DHT22;7352;50.866;4.366;2022-10-13T13:38:43;16.70;99.90
14531;DHT22;7352;50.866;4.366;2022-10-13T13:41:10;16.60;99.90
14531;DHT22;7352;50.866;4.366;2022-10-13T13:43:38;16.70;99.90
14531;DHT22;7352;50.866;4.366;2022-10-13T13:46:08;16.70;99.90
14531;DHT22;7352;50.866;4.366;2022-10-13T13:48:38;16.60;99.90
14531;DHT22;7352;50.866;4.366;2022-10-13T13:51:06;16.60;99.90
14531;DHT22;7352;50.866;4.366;2022-10-13T13:53:34;16.50;99.90
14531;DHT22;7352;50.866;4.366;2022-10-13T13:56:02;16.60;99.90
14531;DHT22;7352;50.866;4.366;2022-10-13T13:58:30;16.50;99.90
14531;DHT22;7352;50.866;4.366;2022-10-13T14:00:58;16.60;99.90
14531;DHT22;7352;50.866;4.366;2022-10-13T14:03:25;16.60;99.90
14531;DHT22;7352;50.866;4.366;2022-10-13T14:05:53;16.70;99.90
14531;DHT22;7352;50.866;4.366;2022-10-13T14:08:20;17.00;99.90
14531;DHT22;7352;50.866;4.366;2022-10-13T14:10:48;17.10;99.90
14531;DHT22;7352;50.866;4.366;2022-10-13T14:13:15;17.20;99.90
14531;DHT22;7352;50.866;4.366;2022-10-13T14:15:42;17.20;99.90
14531;DHT22;7352;50.866;4.366;2022-10-13T14:18:10;17.10;99.90
14531;DHT22;7352;50.866;4.366;2022-10-13T14:20:40;17.20;99.90
14531;DHT22;7352;50.866;4.366;2022-10-13T14:23:07;17.10;99.90
14531;DHT22;7352;50.866;4.366;2022-10-13T14:25:34;17.10;99.90
14531;DHT22;7352;50.866;4.366;2022-10-13T14:28:04;17.30;99.90
14531;DHT22;7352;50.866;4.366;2022-10-13T14:30:32;17.40;99.90
14531;DHT22;7352;50.866;4.366;2022-10-13T14:32:59;17.50;99.90
14531;DHT22;7352;50.866;4.366;2022-10-13T14:35:29;17.50;99.90
14531;DHT22;7352;50.866;4.366;2022-10-13T14:37:57;17.50;99.90
14531;DHT22;7352;50.866;4.366;2022-10-13T14:40:24;17.30;99.90
14531;DHT22;7352;50.866;4.366;2022-10-13T14:42:51;17.20;99.90
14531;DHT22;7352;50.866;4.366;2022-10-13T14:45:19;17.10;99.90
14531;DHT22;7352;50.866;4.366;2022-10-13T14:47:46;16.90;99.90
14531;DHT22;7352;50.866;4.366;2022-10-13T14:50:13;16.70;99.90
14531;DHT22;7352;50.866;4.366;2022-10-13T14:52:40;16.70;99.90
14531;DHT22;7352;50.866;4.366;2022-10-13T14:55:07;16.70;99.90
14531;DHT22;7352;50.866;4.366;2022-10-13T14:57:35;16.70;99.90
14531;DHT22;7352;50.866;4.366;2022-10-13T15:00:03;16.70;99.90
14531;DHT22;7352;50.866;4.366;2022-10-13T15:02:32;16.70;99.90
14531;DHT22;7352;50.866;4.366;2022-10-13T15:04:58;16.50;99.90
14531;DHT22;7352;50.866;4.366;2022-10-13T15:07:25;16.40;99.90
14531;DHT22;7352;50.866;4.366;2022-10-13T15:09:52;16.40;99.90
14531;DHT22;7352;50.866;4.366;2022-10-13T15:12:20;16.50;99.90
14531;DHT22;7352;50.866;4.366;2022-10-13T15:14:47;16.50;99.90
14531;DHT22;7352;50.866;4.366;2022-10-13T15:17:14;16.50;99.90
14531;DHT22;7352;50.866;4.366;2022-10-13T15:19:46;16.50;99.90
14531;DHT22;7352;50.866;4.366;2022-10-13T15:22:13;16.50;99.90
14531;DHT22;7352;50.866;4.366;2022-10-13T15:24:40;16.50;99.90
14531;DHT22;7352;50.866;4.366;2022-10-13T15:27:08;16.50;99.90
14531;DHT22;7352;50.866;4.366;2022-10-13T15:29:34;16.40;99.90
14531;DHT22;7352;50.866;4.366;2022-10-13T15:32:07;16.50;99.90
14531;DHT22;7352;50.866;4.366;2022-10-13T15:34:36;16.50;99.90
14531;DHT22;7352;50.866;4.366;2022-10-13T15:37:04;16.50;99.90
14531;DHT22;7352;50.866;4.366;2022-10-13T15:39:31;16.50;99.90
14531;DHT22;7352;50.866;4.366;2022-10-13T15:41:58;16.50;99.90
14531;DHT22;7352;50.866;4.366;2022-10-13T15:44:25;16.60;99.90
14531;DHT22;7352;50.866;4.366;2022-10-13T15:46:54;16.50;99.90
14531;DHT22;7352;50.866;4.366;2022-10-13T15:49:23;16.60;99.90
14531;DHT22;7352;50.866;4.366;2022-10-13T15:51:55;16.50;99.90
14531;DHT22;7352;50.866;4.366;2022-10-13T15:54:25;16.60;99.90
14531;DHT22;7352;50.866;4.366;2022-10-13T15:56:52;16.50;99.90
14531;DHT22;7352;50.866;4.366;2022-10-13T15:59:24;16.50;99.90
14531;DHT22;7352;50.866;4.366;2022-10-13T16:01:54;16.60;99.90
14531;DHT22;7352;50.866;4.366;2022-10-13T16:04:20;16.70;99.90
14531;DHT22;7352;50.866;4.366;2022-10-13T16:06:48;16.60;99.90
14531;DHT22;7352;50.866;4.366;2022-10-13T16:09:15;16.60;99.90
14531;DHT22;7352;50.866;4.366;2022-10-13T16:11:43;16.60;99.90
14531;DHT22;7352;50.866;4.366;2022-10-13T16:14:14;16.30;99.90
14531;DHT22;7352;50.866;4.366;2022-10-13T16:16:42;16.10;99.90
14531;DHT22;7352;50.866;4.366;2022-10-13T16:22:38;16.20;99.90
14531;DHT22;7352;50.866;4.366;2022-10-13T16:25:27;16.20;99.90
14531;DHT22;7352;50.866;4.366;2022-10-13T16:28:05;16.20;99.90
14531;DHT22;7352;50.866;4.366;2022-10-13T16:30:42;16.10;99.90
14531;DHT22;7352;50.866;4.366;2022-10-13T16:33:39;16.10;99.90
14531;DHT22;7352;50.866;4.366;2022-10-13T16:36:38;16.00;99.90